メインページ
METAR-TAF:

METAR-TAF

空港 :

ソルトレイクシティ国際空港

ソルトレイクシティ, ユタ州, アメリカ合衆国

緯度: 40-46-41N, 経度: 111-58-10W, 海抜: 1288m

現時点の気象観測

当レポートは39分前の22:54(UTC)に作成
の風 6kt
気温 28°C
湿度 15%
気圧 1020 hPa
視程: 16.1km
晴天

METAR: KSLC 212254Z 01006KT 10SM CLR 28/M01 A3011 RMK AO2 SLP151 T02781006

時間: 17:33 (23:33 UTC)

予報

当レポートは2時間41分前の20:52(UTC)に作成
予報は21日の 21時(UTC)から 22日の 24時(UTC)まで有効
北/北西の風 7kt
視程: 10km
晴天
22日の 0300時(UTC)から
南/南東の風 8kt
視程: 10km
晴天
22日の 1500時(UTC)から
の風 12kt、最大18ktの突風を伴う
視程: 10km
高度10000ftの雲はほとんどない

TAF: KSLC 212052Z 2121/2224 33007KT P6SM SKC FM220300 15008KT P6SM SKC FM221500 18012G18KT P6SM FEW100

4,000以上の空港の気象観測と天気予報(METAR報とTAF報)

利用可能な観測所は地図上に黄色い丸と赤い丸で示す。

丸の上にカーソルを重ねると観測所名を参照できる。

次にクリックすると気象観測と天気予報を参照できる。

マップの切り替え:黒色「×」印の緑ボタンをクリックして拡大、「-」印の緑ボタンをクリックして縮小、緑色の三角印をクリックして隣りの地図に切り替え


METAR-TAF: